createdAt,value
2023-05-20T00:01:53.011Z,85.96
2023-05-20T00:04:19.897Z,86.44
2023-05-20T00:06:46.670Z,86.88
2023-05-20T00:09:13.448Z,86.02
2023-05-20T00:11:40.486Z,85.85
2023-05-20T00:14:07.183Z,84.21
2023-05-20T00:16:33.979Z,84.73
2023-05-20T00:19:00.960Z,85.16
2023-05-20T00:21:27.738Z,86.54
2023-05-20T00:23:54.433Z,86.19
2023-05-20T00:26:21.476Z,86.14
2023-05-20T00:28:53.927Z,86.41
2023-05-20T00:31:21.803Z,86.71
2023-05-20T00:33:48.670Z,86.61
2023-05-20T00:36:15.682Z,86.63
2023-05-20T00:38:42.386Z,85.79
2023-05-20T00:41:09.075Z,85.94
2023-05-20T00:43:35.804Z,86.08
2023-05-20T00:46:02.598Z,87.34
2023-05-20T00:48:41.107Z,87.66
2023-05-20T00:51:07.979Z,87.03
2023-05-20T00:53:36.233Z,86.83
2023-05-20T00:56:04.515Z,87.41
2023-05-20T00:58:32.177Z,87.11
2023-05-20T01:00:59.276Z,87.59
2023-05-20T01:03:26.303Z,87.22
2023-05-20T01:05:53.273Z,88.18
2023-05-20T01:08:20.559Z,88.85
2023-05-20T01:10:51.908Z,88.01
2023-05-20T01:13:25.491Z,86.85
2023-05-20T01:15:56.041Z,88.93
2023-05-20T01:18:25.643Z,87.57
2023-05-20T01:20:55.850Z,88.68
2023-05-20T01:23:22.691Z,87.22
2023-05-20T01:25:49.336Z,88.41
2023-05-20T01:28:18.059Z,88.00
2023-05-20T01:30:51.002Z,86.94
2023-05-20T01:33:20.355Z,89.71
2023-05-20T01:35:47.858Z,88.11
2023-05-20T01:38:19.581Z,89.28
2023-05-20T01:40:47.987Z,88.77
2023-05-20T01:43:17.609Z,89.16
2023-05-20T01:45:45.031Z,89.66
2023-05-20T01:48:12.437Z,87.72
2023-05-20T01:50:39.809Z,88.57
2023-05-20T01:53:08.440Z,88.88
2023-05-20T01:55:36.170Z,90.10
2023-05-20T01:58:03.371Z,88.44
2023-05-20T02:00:32.306Z,88.93
2023-05-20T02:02:59.597Z,90.51
2023-05-20T02:05:26.336Z,90.62
2023-05-20T02:07:53.007Z,91.15
2023-05-20T02:10:20.865Z,90.73
2023-05-20T02:12:49.311Z,90.47
2023-05-20T02:15:16.267Z,89.42
2023-05-20T02:17:43.840Z,89.55
2023-05-20T02:20:11.746Z,92.58
2023-05-20T02:22:38.527Z,92.27
2023-05-20T02:25:05.856Z,91.23
2023-05-20T02:27:32.645Z,91.07
2023-05-20T02:30:00.320Z,90.20
2023-05-20T02:32:28.859Z,90.16
2023-05-20T02:34:55.738Z,90.46
2023-05-20T02:37:22.574Z,91.80
2023-05-20T02:39:49.359Z,91.99
2023-05-20T02:42:16.116Z,91.59
2023-05-20T02:44:45.550Z,90.76
2023-05-20T02:47:14.293Z,90.27
2023-05-20T02:49:41.390Z,90.51
2023-05-20T02:52:09.040Z,89.41
2023-05-20T02:54:35.749Z,90.12
2023-05-20T02:57:03.419Z,91.07
2023-05-20T02:59:30.181Z,91.12
2023-05-20T03:01:57.065Z,90.72
2023-05-20T03:04:25.626Z,91.53
2023-05-20T03:06:52.681Z,90.79
2023-05-20T03:09:19.679Z,90.33
2023-05-20T03:11:47.674Z,90.13
2023-05-20T03:14:14.416Z,90.61
2023-05-20T03:16:41.770Z,90.09
2023-05-20T03:19:08.737Z,90.18
2023-05-20T03:21:35.756Z,90.81
2023-05-20T03:24:02.496Z,90.62
2023-05-20T03:26:30.591Z,90.83
2023-05-20T03:28:57.326Z,89.75
2023-05-20T03:31:24.677Z,90.55
2023-05-20T03:33:51.689Z,90.74
2023-05-20T03:36:18.554Z,90.57
2023-05-20T03:38:45.509Z,91.14
2023-05-20T03:41:12.313Z,91.12
2023-05-20T03:43:39.615Z,90.82
2023-05-20T03:46:06.700Z,90.29
2023-05-20T03:48:33.768Z,90.86
2023-05-20T03:51:01.998Z,90.45
2023-05-20T03:53:28.750Z,90.68
2023-05-20T03:55:55.749Z,90.88
2023-05-20T03:58:22.516Z,90.17
2023-05-20T04:00:50.117Z,90.40
2023-05-20T04:03:17.163Z,90.48
2023-05-20T04:05:44.428Z,91.24
2023-05-20T04:08:18.845Z,90.19
2023-05-20T04:10:46.376Z,89.53
2023-05-20T04:13:13.209Z,88.89
2023-05-20T04:15:41.537Z,88.38
2023-05-20T04:18:08.825Z,88.50
2023-05-20T04:20:36.034Z,89.12
2023-05-20T04:23:02.885Z,89.12
2023-05-20T04:25:30.120Z,88.38
2023-05-20T04:27:57.879Z,88.13
2023-05-20T04:30:24.730Z,87.83
2023-05-20T04:32:52.366Z,88.00
2023-05-20T04:35:19.469Z,87.41
2023-05-20T04:37:48.401Z,86.88
2023-05-20T04:40:17.124Z,86.14
2023-05-20T04:42:44.881Z,86.08
2023-05-20T04:45:12.689Z,84.86
2023-05-20T04:47:41.950Z,85.02
2023-05-20T04:50:16.313Z,84.17
2023-05-20T04:52:43.814Z,83.73
2023-05-20T04:55:12.038Z,83.64
2023-05-20T04:57:41.999Z,81.96
2023-05-20T05:00:11.371Z,82.09
2023-05-20T05:02:39.428Z,81.63
2023-05-20T05:05:06.873Z,81.39
2023-05-20T05:07:33.800Z,81.84
2023-05-20T05:10:01.183Z,81.31
2023-05-20T05:12:30.225Z,80.50
2023-05-20T05:14:58.829Z,79.91
2023-05-20T05:17:26.282Z,79.54
2023-05-20T05:19:53.050Z,79.61
2023-05-20T05:22:19.794Z,78.78
2023-05-20T05:24:46.607Z,80.36
2023-05-20T05:27:14.185Z,80.23
2023-05-20T05:29:41.350Z,80.64
2023-05-20T05:32:08.408Z,79.15
2023-05-20T05:34:35.098Z,80.29
2023-05-20T05:37:01.898Z,81.35
2023-05-20T05:39:28.612Z,80.94
2023-05-20T05:41:56.249Z,80.23
2023-05-20T05:44:23.134Z,79.05
2023-05-20T05:46:50.025Z,80.97
2023-05-20T05:49:17.323Z,79.98
2023-05-20T05:51:44.449Z,80.38
2023-05-20T05:54:11.670Z,79.94
2023-05-20T05:56:38.400Z,80.06
2023-05-20T05:59:05.537Z,80.86
2023-05-20T06:01:32.457Z,80.83
2023-05-20T06:03:59.623Z,79.33
2023-05-20T06:06:26.910Z,78.71
2023-05-20T06:08:54.261Z,78.97
2023-05-20T06:11:21.754Z,79.19
2023-05-20T06:13:48.541Z,76.10
2023-05-20T06:16:15.717Z,75.50
2023-05-20T06:18:43.043Z,75.65
2023-05-20T06:21:09.775Z,75.01
2023-05-20T06:23:36.766Z,76.40
2023-05-20T06:26:05.919Z,76.49
2023-05-20T06:28:32.690Z,75.32
2023-05-20T06:30:59.548Z,75.15
2023-05-20T06:33:29.097Z,73.81
2023-05-20T06:36:01.815Z,74.57
2023-05-20T06:38:29.282Z,72.18
2023-05-20T06:40:56.009Z,73.80
2023-05-20T06:43:22.812Z,75.40
2023-05-20T06:45:54.946Z,72.22
2023-05-20T06:48:35.801Z,73.43
2023-05-20T06:51:02.625Z,72.30
2023-05-20T06:53:29.949Z,69.52
2023-05-20T06:55:57.237Z,68.13
2023-05-20T06:58:23.890Z,70.04
2023-05-20T07:00:50.740Z,71.16
2023-05-20T07:03:17.621Z,68.30
2023-05-20T07:05:44.892Z,63.81
2023-05-20T07:08:12.141Z,62.96
2023-05-20T07:10:38.993Z,62.31
2023-05-20T07:13:06.188Z,61.14
2023-05-20T07:15:33.297Z,61.25
2023-05-20T07:18:00.312Z,61.65
2023-05-20T07:20:27.123Z,61.18
2023-05-20T07:22:54.631Z,61.45
2023-05-20T07:25:23.942Z,61.22
2023-05-20T07:27:51.031Z,62.41
2023-05-20T07:30:17.922Z,61.75
2023-05-20T07:32:54.053Z,62.09
2023-05-20T07:35:20.858Z,62.89
2023-05-20T07:37:48.038Z,62.28
2023-05-20T07:40:14.965Z,62.41
2023-05-20T07:42:41.888Z,64.59
2023-05-20T07:45:10.145Z,63.41
2023-05-20T07:47:36.865Z,63.59
2023-05-20T07:50:03.936Z,61.70
2023-05-20T07:52:44.101Z,59.98
2023-05-20T07:55:20.254Z,61.71
2023-05-20T07:57:47.024Z,63.11
2023-05-20T08:00:14.833Z,60.59
2023-05-20T08:02:44.745Z,61.31
2023-05-20T08:05:15.149Z,63.34
2023-05-20T08:07:42.031Z,61.19
2023-05-20T08:10:12.000Z,59.50
2023-05-20T08:12:38.902Z,60.50
2023-05-20T08:15:06.518Z,57.81
2023-05-20T08:17:33.777Z,57.96
2023-05-20T08:20:00.833Z,59.58
2023-05-20T08:22:28.012Z,59.04
2023-05-20T08:24:55.778Z,60.21
2023-05-20T08:27:22.572Z,60.78
2023-05-20T08:29:49.430Z,59.81
2023-05-20T08:32:16.306Z,59.26
2023-05-20T08:34:44.646Z,59.96
2023-05-20T08:37:11.527Z,59.03
2023-05-20T08:39:38.208Z,58.55
2023-05-20T08:42:07.994Z,59.27
2023-05-20T08:44:35.998Z,59.64
2023-05-20T08:47:04.442Z,61.78
2023-05-20T08:49:32.098Z,62.72
2023-05-20T08:52:01.030Z,62.56
2023-05-20T08:54:43.270Z,62.24
2023-05-20T08:57:10.777Z,62.34
2023-05-20T08:59:37.681Z,62.15
2023-05-20T09:02:04.759Z,62.81
2023-05-20T09:04:31.586Z,60.44
2023-05-20T09:06:58.381Z,60.11
2023-05-20T09:09:25.071Z,60.67
2023-05-20T09:11:51.782Z,61.62
2023-05-20T09:14:18.501Z,59.61
2023-05-20T09:16:45.354Z,61.81
2023-05-20T09:19:12.226Z,61.57
2023-05-20T09:21:41.816Z,61.09
2023-05-20T09:24:08.554Z,61.34
2023-05-20T09:26:36.156Z,60.89
2023-05-20T09:29:02.927Z,58.80
2023-05-20T09:31:35.712Z,58.37
2023-05-20T09:34:03.337Z,59.24
2023-05-20T09:36:33.534Z,56.91
2023-05-20T09:39:05.773Z,57.19
2023-05-20T09:41:45.058Z,57.32
2023-05-20T09:44:12.941Z,58.20
2023-05-20T09:46:41.399Z,60.30
2023-05-20T09:49:08.568Z,58.43
2023-05-20T09:51:35.976Z,56.63
2023-05-20T09:54:03.979Z,57.12
2023-05-20T09:56:31.019Z,56.14
2023-05-20T09:58:59.566Z,54.26
2023-05-20T10:01:26.331Z,54.25
2023-05-20T10:03:53.557Z,55.71
2023-05-20T10:06:40.232Z,46.56
2023-05-20T10:09:12.889Z,39.03
2023-05-20T10:12:03.484Z,44.34
2023-05-20T10:14:54.899Z,45.84
2023-05-20T10:17:32.119Z,39.31
2023-05-20T10:20:04.588Z,46.44
2023-05-20T10:22:33.304Z,41.73
2023-05-20T10:25:08.697Z,35.28
2023-05-20T10:27:46.598Z,37.27
2023-05-20T10:30:17.982Z,34.53
2023-05-20T10:33:03.251Z,41.12
2023-05-20T10:35:30.609Z,43.29
2023-05-20T10:38:10.141Z,42.07
2023-05-20T10:40:37.201Z,41.14
2023-05-20T10:43:11.723Z,40.44
2023-05-20T10:45:55.318Z,35.82
2023-05-20T10:48:32.263Z,35.43
2023-05-20T10:51:06.609Z,35.36
2023-05-20T10:53:45.201Z,37.18
2023-05-20T10:56:23.148Z,45.49
2023-05-20T10:58:51.695Z,51.21
2023-05-20T11:01:19.650Z,51.27
2023-05-20T11:03:49.721Z,52.00
2023-05-20T11:06:18.694Z,50.58
2023-05-20T11:08:46.248Z,54.39
2023-05-20T11:11:14.460Z,53.83
2023-05-20T11:13:41.374Z,55.21
2023-05-20T11:16:08.208Z,55.36
2023-05-20T11:18:35.164Z,51.77
2023-05-20T11:21:02.621Z,56.84
2023-05-20T11:23:29.885Z,55.41
2023-05-20T11:25:57.679Z,56.79
2023-05-20T11:28:24.676Z,58.58
2023-05-20T11:30:52.630Z,56.20
2023-05-20T11:33:19.601Z,56.90
2023-05-20T11:35:47.240Z,57.04
2023-05-20T11:38:14.472Z,53.71
2023-05-20T11:40:52.129Z,59.07
2023-05-20T11:43:19.809Z,57.64
2023-05-20T11:45:55.440Z,56.21
2023-05-20T11:48:25.421Z,55.73
2023-05-20T11:50:57.100Z,54.97
2023-05-20T11:53:24.762Z,56.35
2023-05-20T11:55:57.532Z,56.42
2023-05-20T11:58:30.961Z,59.46
2023-05-20T12:01:05.703Z,58.01
2023-05-20T12:03:40.604Z,58.69
2023-05-20T12:06:07.809Z,58.14
2023-05-20T12:08:34.533Z,57.56
2023-05-20T12:11:01.336Z,57.62
2023-05-20T12:13:28.141Z,59.05
2023-05-20T12:15:54.951Z,55.32
2023-05-20T12:18:22.481Z,57.03
2023-05-20T12:20:49.290Z,56.96
2023-05-20T12:23:16.119Z,58.80
2023-05-20T12:25:42.952Z,60.88
2023-05-20T12:28:09.737Z,60.63
2023-05-20T12:30:36.612Z,59.46
2023-05-20T12:33:03.646Z,57.84
2023-05-20T12:35:38.698Z,58.63
2023-05-20T12:38:05.914Z,59.51
2023-05-20T12:40:33.817Z,59.31
2023-05-20T12:43:01.435Z,60.09
2023-05-20T12:45:28.230Z,60.18
2023-05-20T12:47:56.247Z,59.25
2023-05-20T12:50:23.407Z,60.40
2023-05-20T12:52:50.429Z,59.66
2023-05-20T12:55:17.145Z,60.89
2023-05-20T12:57:44.776Z,58.57
2023-05-20T13:00:12.891Z,59.51
2023-05-20T13:02:42.239Z,60.32
2023-05-20T13:05:09.647Z,60.13
2023-05-20T13:07:36.494Z,59.46
2023-05-20T13:10:03.597Z,59.97
2023-05-20T13:12:30.452Z,59.36
2023-05-20T13:14:57.336Z,59.20
2023-05-20T13:17:24.139Z,60.27
2023-05-20T13:19:51.385Z,59.34
2023-05-20T13:22:18.412Z,59.75
2023-05-20T13:24:45.071Z,59.73
2023-05-20T13:27:11.889Z,57.95
2023-05-20T13:29:38.558Z,55.73
2023-05-20T13:32:05.497Z,56.46
2023-05-20T13:34:32.193Z,54.54
2023-05-20T13:36:58.879Z,56.24
2023-05-20T13:39:25.600Z,58.48
2023-05-20T13:41:54.953Z,57.97
2023-05-20T13:44:21.970Z,58.98
2023-05-20T13:46:48.892Z,59.93
2023-05-20T13:49:17.928Z,60.54
2023-05-20T13:51:46.005Z,61.31
2023-05-20T13:54:12.710Z,60.09
2023-05-20T13:56:39.522Z,60.91
2023-05-20T13:59:07.099Z,61.84
2023-05-20T14:01:34.101Z,62.45
2023-05-20T14:04:01.134Z,61.90
2023-05-20T14:06:29.450Z,61.89
2023-05-20T14:08:56.983Z,61.64
2023-05-20T14:11:23.762Z,61.75
2023-05-20T14:13:50.462Z,64.02
2023-05-20T14:16:17.387Z,62.01
2023-05-20T14:18:44.223Z,62.53
2023-05-20T14:21:11.947Z,63.58
2023-05-20T14:23:41.140Z,63.60
2023-05-20T14:26:07.892Z,60.94
2023-05-20T14:28:34.676Z,61.79
2023-05-20T14:31:01.551Z,62.97
2023-05-20T14:33:28.320Z,61.39
2023-05-20T14:35:55.121Z,61.88
2023-05-20T14:38:22.129Z,62.92
2023-05-20T14:40:48.857Z,64.21
2023-05-20T14:43:15.542Z,63.46
2023-05-20T14:45:42.269Z,62.80
2023-05-20T14:48:09.234Z,62.24
2023-05-20T14:50:36.230Z,62.97
2023-05-20T14:53:03.227Z,63.85
2023-05-20T14:55:29.897Z,63.16
2023-05-20T14:57:56.636Z,63.55
2023-05-20T15:00:23.397Z,63.56
2023-05-20T15:02:50.618Z,62.89
2023-05-20T15:05:18.141Z,63.98
2023-05-20T15:07:46.804Z,62.88
2023-05-20T15:10:13.835Z,62.10
2023-05-20T15:12:40.542Z,63.26
2023-05-20T15:15:07.640Z,63.88
2023-05-20T15:17:34.511Z,64.24
2023-05-20T15:20:01.486Z,61.76
2023-05-20T15:22:28.272Z,62.57
2023-05-20T15:24:55.001Z,63.01
2023-05-20T15:27:21.759Z,62.71
2023-05-20T15:29:48.775Z,62.62
2023-05-20T15:32:15.770Z,63.24
2023-05-20T15:34:42.463Z,63.34
2023-05-20T15:37:09.147Z,60.67
2023-05-20T15:39:38.020Z,65.22
2023-05-20T15:42:05.342Z,65.27
2023-05-20T15:44:32.297Z,64.62
2023-05-20T15:46:58.986Z,63.80
2023-05-20T15:49:25.806Z,65.20
2023-05-20T15:52:02.994Z,64.48
2023-05-20T15:54:32.712Z,65.99
2023-05-20T15:56:59.649Z,65.36
2023-05-20T15:59:26.380Z,64.61
2023-05-20T16:01:53.206Z,64.47
2023-05-20T16:04:20.390Z,64.55
2023-05-20T16:06:47.432Z,62.54
2023-05-20T16:09:14.274Z,61.48
2023-05-20T16:11:41.084Z,62.19
2023-05-20T16:14:07.813Z,63.50
2023-05-20T16:16:36.176Z,62.38
2023-05-20T16:19:03.778Z,62.52
2023-05-20T16:21:31.291Z,63.28
2023-05-20T16:23:58.160Z,63.27
2023-05-20T16:26:25.108Z,61.53
2023-05-20T16:28:51.841Z,62.01
2023-05-20T16:31:18.881Z,62.38
2023-05-20T16:33:45.696Z,61.64
2023-05-20T16:36:12.427Z,61.73
2023-05-20T16:38:39.352Z,61.36
2023-05-20T16:41:06.086Z,61.34
2023-05-20T16:43:32.798Z,62.05
2023-05-20T16:45:59.684Z,62.59
2023-05-20T16:48:26.822Z,62.78
2023-05-20T16:50:55.996Z,61.90
2023-05-20T16:53:23.544Z,62.68
2023-05-20T16:55:51.938Z,63.06
2023-05-20T16:58:18.672Z,63.68
2023-05-20T17:00:45.461Z,64.03
2023-05-20T17:03:12.429Z,63.69
2023-05-20T17:05:39.117Z,64.25
2023-05-20T17:08:06.046Z,63.32
2023-05-20T17:10:32.954Z,64.62
2023-05-20T17:12:59.974Z,64.97
2023-05-20T17:15:26.838Z,65.42
2023-05-20T17:17:53.582Z,66.19
2023-05-20T17:20:20.562Z,65.14
2023-05-20T17:23:06.221Z,65.62
2023-05-20T17:25:40.417Z,65.34
2023-05-20T17:28:13.226Z,68.11
2023-05-20T17:30:40.211Z,65.67
2023-05-20T17:33:08.614Z,66.11
2023-05-20T17:35:36.957Z,65.73
2023-05-20T17:38:09.114Z,66.44
2023-05-20T17:40:36.599Z,66.65
2023-05-20T17:43:06.449Z,66.18
2023-05-20T17:45:39.318Z,64.93
2023-05-20T17:48:14.891Z,64.44
2023-05-20T17:50:56.390Z,64.76
2023-05-20T17:53:35.007Z,65.33
2023-05-20T17:56:22.574Z,65.52
2023-05-20T17:59:08.428Z,64.85
2023-05-20T18:01:57.952Z,64.77
2023-05-20T18:04:47.089Z,65.25
2023-05-20T18:07:33.676Z,65.22
2023-05-20T18:10:01.294Z,64.62
2023-05-20T18:19:23.465Z,61.90
2023-05-20T18:22:09.517Z,60.54
2023-05-20T18:24:48.338Z,59.24
2023-05-20T18:27:43.368Z,57.82
2023-05-20T18:30:10.725Z,55.52
2023-05-20T18:32:40.005Z,52.70
2023-05-20T18:35:07.430Z,52.49
2023-05-20T18:37:34.437Z,51.68
2023-05-20T18:40:07.098Z,51.95
2023-05-20T18:42:57.460Z,50.73
2023-05-20T18:45:25.052Z,49.43
2023-05-20T18:48:11.217Z,49.11
2023-05-20T18:50:42.438Z,50.73
2023-05-20T18:53:19.323Z,50.47
2023-05-20T18:55:49.804Z,49.70
2023-05-20T18:58:19.298Z,49.38
2023-05-20T19:00:51.927Z,48.03
2023-05-20T19:03:18.853Z,48.49
2023-05-20T19:05:48.001Z,47.04
2023-05-20T19:08:15.781Z,47.51
2023-05-20T19:10:47.817Z,48.14
2023-05-20T19:13:20.556Z,48.26
2023-05-20T19:15:50.544Z,47.71
2023-05-20T19:18:24.300Z,47.99
2023-05-20T19:20:52.694Z,47.14
2023-05-20T19:23:29.456Z,48.35
2023-05-20T19:25:56.921Z,48.20
2023-05-20T19:28:24.495Z,47.43
2023-05-20T19:30:51.742Z,46.48
2023-05-20T19:33:18.771Z,47.48
2023-05-20T19:35:45.719Z,47.76
2023-05-20T19:38:12.886Z,47.73
2023-05-20T19:40:44.257Z,47.51
2023-05-20T19:43:11.505Z,46.72
2023-05-20T19:45:38.833Z,47.13
2023-05-20T19:48:39.481Z,47.41
2023-05-20T19:51:40.927Z,47.78
2023-05-20T19:54:14.869Z,48.12
2023-05-20T19:56:41.948Z,49.92
2023-05-20T19:59:08.818Z,49.63
2023-05-20T20:01:35.889Z,49.62
2023-05-20T20:04:03.085Z,48.54
2023-05-20T20:06:29.830Z,47.31
2023-05-20T20:09:01.666Z,47.45
2023-05-20T20:19:58.889Z,46.81
2023-05-20T20:22:26.817Z,47.03
2023-05-20T20:24:53.542Z,47.09
2023-05-20T20:27:20.552Z,47.63
2023-05-20T20:29:47.296Z,46.66
2023-05-20T20:32:15.193Z,46.28
2023-05-20T20:34:42.165Z,47.36
2023-05-20T20:37:09.999Z,47.01
2023-05-20T20:39:37.358Z,47.22
2023-05-20T20:42:04.437Z,46.72
2023-05-20T20:44:32.601Z,46.31
2023-05-20T20:46:59.154Z,46.91
2023-05-20T20:49:26.969Z,48.20
2023-05-20T20:51:55.212Z,47.32
2023-05-20T20:54:21.869Z,46.67
2023-05-20T20:56:50.019Z,46.93
2023-05-20T20:59:16.676Z,47.28
2023-05-20T21:01:44.835Z,47.34
2023-05-20T21:04:13.943Z,47.38
2023-05-20T21:06:46.143Z,47.75
2023-05-20T21:09:16.225Z,48.03
2023-05-20T21:11:45.149Z,47.54
2023-05-20T21:14:13.018Z,47.93
2023-05-20T21:16:40.231Z,47.82
2023-05-20T21:19:07.032Z,48.23
2023-05-20T21:21:33.888Z,47.33
2023-05-20T21:24:00.594Z,47.90
2023-05-20T21:26:27.353Z,48.78
2023-05-20T21:28:54.098Z,49.86
2023-05-20T21:31:20.902Z,48.59
2023-05-20T21:33:47.787Z,48.25
2023-05-20T21:36:14.550Z,49.54
2023-05-20T21:38:41.297Z,49.60
2023-05-20T21:41:08.478Z,51.53
2023-05-20T21:43:36.022Z,52.11
2023-05-20T21:46:03.045Z,50.68
2023-05-20T21:48:30.251Z,50.67
2023-05-20T21:50:56.969Z,50.13
2023-05-20T21:53:23.670Z,50.03
2023-05-20T21:55:50.964Z,49.66
2023-05-20T21:58:17.657Z,49.97
2023-05-20T22:00:45.146Z,49.62
2023-05-20T22:03:13.124Z,50.21
2023-05-20T22:05:41.017Z,49.93
2023-05-20T22:08:07.864Z,50.09
2023-05-20T22:10:36.542Z,49.17
2023-05-20T22:13:03.703Z,49.43
2023-05-20T22:15:31.475Z,48.42
2023-05-20T22:17:58.778Z,48.90
2023-05-20T22:20:25.859Z,49.05
2023-05-20T22:22:52.668Z,48.63
2023-05-20T22:25:19.556Z,48.79
2023-05-20T22:27:46.407Z,49.90
2023-05-20T22:30:13.757Z,49.40
2023-05-20T22:32:40.871Z,49.47
2023-05-20T22:35:08.285Z,50.08
2023-05-20T22:37:35.116Z,50.11
2023-05-20T22:40:01.987Z,51.27
2023-05-20T22:42:28.686Z,51.15
2023-05-20T22:44:55.661Z,50.71
2023-05-20T22:47:22.393Z,50.79
2023-05-20T22:49:49.395Z,51.48
2023-05-20T22:52:16.114Z,51.84
2023-05-20T22:54:43.047Z,51.74
2023-05-20T22:57:09.698Z,51.79
2023-05-20T22:59:36.781Z,51.43
2023-05-20T23:02:04.655Z,52.24
2023-05-20T23:04:31.654Z,51.69
2023-05-20T23:06:59.530Z,51.48
2023-05-20T23:09:26.661Z,51.40
2023-05-20T23:11:53.383Z,53.40
2023-05-20T23:14:20.292Z,52.84
2023-05-20T23:16:47.281Z,52.52
2023-05-20T23:19:14.264Z,52.97
2023-05-20T23:21:41.122Z,53.51
2023-05-20T23:24:07.861Z,53.70
2023-05-20T23:26:34.608Z,53.39
2023-05-20T23:29:01.629Z,53.23
2023-05-20T23:31:30.140Z,53.82
2023-05-20T23:33:59.736Z,53.90
2023-05-20T23:36:26.592Z,54.99
2023-05-20T23:38:53.307Z,54.74
2023-05-20T23:41:20.059Z,55.42
2023-05-20T23:43:46.969Z,54.70
2023-05-20T23:46:14.211Z,54.97
2023-05-20T23:48:41.345Z,56.31
2023-05-20T23:51:10.307Z,59.45
2023-05-20T23:53:39.236Z,61.53
2023-05-20T23:56:09.299Z,59.57
2023-05-20T23:58:36.433Z,59.37
